Home   Weather   Germany   Reutlingen   Past weeks
Flag for Germany

Past Weather in Reutlingen, Baden-Württemberg, Germany — Yesterday and Last 2 Weeks

Currently: 50 °F. Clear. (Weather station: Stuttgart-Echterdingen, Germany). See more current weather

Past Weather in Reutlingen — Graph

°F

Reutlingen Temperature Yesterday

Maximum temperature yesterday: 72 °F (at 3:20 pm)
Minimum temperature yesterday: 45 °F (at 7:20 am)
Average temperature yesterday: 58 °F

High & Low Weather Summary for the Past Weeks

 TemperatureHumidityPressure
High81 °F (Sep 9, 3:20 pm)100% (Sep 4, 5:50 am)30.27 "Hg (Sep 4, 5:50 am)
Low45 °F (Sep 18, 7:20 am)34% (Sep 4, 5:20 pm)29.95 "Hg (Sep 8, 6:50 pm)
Average64 °F75%30.06 "Hg
* Reported Sep 4 1:20 am — Sep 19 1:50 am, Reutlingen. Weather by CustomWeather, © 2021

Note: Actual official high and low records may vary slightly from our data, if they occured in-between our weather recording intervals... More about our weather records

Reutlingen Weather History for the Previous 24 Hours

Scroll right to see more
 ConditionsComfort  
Time TempWeatherWind HumidityBarometerVisibility
1:50 am
Sun, Sep 19
54 °FPassing clouds.3 mph88%29.98 "HgN/A
1:20 am54 °FClear.2 mph88%29.98 "Hg10 mi
12:50 am54 °FClear.1 mph88%29.98 "Hg10 mi
12:20 am54 °FClear.1 mph88%29.98 "Hg10 mi
11:50 pm
Sat, Sep 18
54 °FClear.3 mph88%29.98 "Hg10 mi
11:20 pm55 °FClear.5 mph82%29.98 "Hg10 mi
10:50 pm55 °FClear.2 mph82%29.98 "Hg10 mi
10:20 pm57 °FPassing clouds.2 mph77%29.98 "HgN/A
9:50 pm57 °FClear.2 mph77%29.98 "Hg10 mi
9:20 pm57 °FClear.2 mph82%29.98 "Hg10 mi
8:50 pm59 °FClear.2 mph77%29.98 "Hg10 mi
8:20 pm59 °FClear.2 mph72%29.98 "Hg10 mi
7:50 pm61 °FClear.1 mph68%29.98 "Hg10 mi
7:20 pm64 °FSunny.6 mph64%29.98 "Hg10 mi
6:50 pm66 °FSunny.6 mph60%29.98 "Hg10 mi
6:20 pm68 °FMild.5 mph53%29.98 "HgN/A
5:50 pm68 °FPassing clouds.5 mph56%29.98 "HgN/A
5:20 pm70 °FPassing clouds.6 mph53%29.98 "HgN/A
4:50 pm70 °FScattered clouds.9 mph53%29.98 "HgN/A
4:20 pm72 °FScattered clouds.2 mph47%30.01 "HgN/A
3:50 pm68 °FScattered clouds.3 mph53%30.01 "HgN/A
3:20 pm72 °FScattered clouds.5 mph50%30.01 "HgN/A
2:50 pm70 °FScattered clouds.5 mph50%30.01 "HgN/A
2:20 pm70 °FScattered clouds.5 mph50%30.01 "HgN/A
1:50 pm68 °FScattered clouds.3 mph49%30.04 "HgN/A
1:20 pm68 °FPassing clouds.3 mph46%30.04 "HgN/A
12:50 pm66 °FPassing clouds.5 mph52%30.04 "HgN/A
12:20 pm66 °FPassing clouds.6 mph56%30.04 "HgN/A
11:50 am64 °FPassing clouds.2 mph60%30.04 "HgN/A
11:20 am63 °FPassing clouds.1 mph68%30.04 "HgN/A
10:50 am59 °FPassing clouds.3 mph77%30.04 "HgN/A
10:20 am57 °FSunny.2 mph82%30.04 "Hg10 mi
9:50 am55 °FSunny.2 mph82%30.04 "Hg10 mi
9:20 am54 °FSunny.1 mph82%30.04 "Hg10 mi
8:50 am52 °FSunny.2 mph88%30.04 "Hg10 mi
8:20 am48 °FLight fog.1 mph94%30.04 "HgN/A
7:50 am46 °FLight fog.1 mph100%30.04 "HgN/A
7:20 am45 °FLight fog.2 mph100%30.04 "HgN/A
6:50 am46 °FLight fog.1 mph100%30.01 "HgN/A
6:20 am46 °FLight fog.1 mph100%30.01 "HgN/A
5:50 am46 °FLight fog.1 mph93%30.01 "HgN/A
5:20 am46 °FLight fog.No wind93%30.01 "HgN/A
4:20 am46 °FClear.2 mph100%30.01 "Hg10 mi
3:20 am48 °FClear.1 mph100%30.04 "Hg10 mi
Weather by CustomWeather, © 2021

See weather overview